Time;durP1;ratioP1;P1;durP2;ratioP2;P2;SDS_P1;SDS_P2;PMS_P1;PMS_P2;Temp;Humidity;BMP_temperature;BMP_pressure;BME280_temperature;BME280_humidity;BME280_pressure;Samples;Min_cycle;Max_cycle;Signal;HPM_P1;HPM_P2
2022/01/15 00:40:57;;;;;;;7.80;1.50;;;;;;;0.19;74.21;100508.27;101691;1310;73069;-73
2022/01/15 01:06:37;;;;;;;7.30;1.80;;;;;;;0.06;74.99;100517.00;103747;1285;70340;-74
2022/01/15 01:29:21;;;;;;;;;;;;;;;;;;;;;
2022/01/15 01:49:19;;;;;;;7.90;1.70;;;;;;;-0.20;76.88;100516.45;101702;1311;70894;-76
2022/01/15 01:54:18;;;;;;;;;;;;;;;;;;;;;
2022/01/15 01:58:03;;;;;;;9.30;1.90;;;;;;;-0.22;77.56;100509.35;102759;1300;73090;-74
2022/01/15 02:03:07;;;;;;;7.80;1.50;;;;;;;-0.26;77.73;100511.05;103133;1300;59601;-75
2022/01/15 02:19:06;;;;;;;7.90;1.20;;;;;;;-0.43;79.30;100505.89;103318;1290;68611;-75
2022/01/15 02:24:28;;;;;;;11.80;3.00;;;;;;;-0.46;79.19;100508.05;100496;1293;3264562;-75
2022/01/15 02:29:01;;;;;;;;;;;;;;;;;;;;;
2022/01/15 03:52:31;;;;;;;6.90;1.50;;;;;;;-0.71;81.94;100516.14;102999;1294;60425;-75
2022/01/15 04:03:27;;;;;;;8.90;1.90;;;;;;;-0.77;82.21;100520.30;103937;1284;70078;-74
2022/01/15 04:56:49;;;;;;;;;;;;;;;;;;;;;
2022/01/15 05:33:43;;;;;;;11.10;1.90;;;;;;;-1.25;84.49;100605.83;102773;1300;59517;-76
2022/01/15 05:38:39;;;;;;;9.80;1.70;;;;;;;-1.31;84.87;100612.39;102606;1300;59335;-75
2022/01/15 06:53:50;;;;;;;;;;;;;;;;;;;;;
2022/01/15 08:14:22;;;;;;;;;;;;;;;;;;;;;
2022/01/15 08:37:17;;;;;;;21.20;4.70;;;;;;;1.09;82.30;100714.80;103513;1294;73049;-71
2022/01/15 08:41:48;;;;;;;;;;;;;;;;;;;;;
2022/01/15 08:55:38;;;;;;;10.80;3.60;;;;;;;9.96;48.83;100699.21;104117;1291;68132;-72
2022/01/15 08:58:27;;;;;;;11.90;3.60;;;;;;;10.93;48.10;100696.67;103550;1288;73673;-77
2022/01/15 09:01:15;;;;;;;14.50;4.00;;;;;;;11.64;44.40;100697.17;103915;1287;59475;-78
2022/01/15 09:04:03;;;;;;;12.00;3.40;;;;;;;12.15;43.31;100697.39;103595;1287;59350;-75
2022/01/15 09:10:42;;;;;;;9.40;2.50;;;;;;;13.23;39.47;100704.30;104043;1287;66943;-74
2022/01/15 09:13:30;;;;;;;9.70;2.50;;;;;;;13.41;39.46;100700.45;103753;1288;72847;-76
2022/01/15 09:16:29;;;;;;;9.40;2.60;;;;;;;13.26;38.83;100700.55;103860;1288;59333;-74
2022/01/15 09:19:43;;;;;;;8.90;2.40;;;;;;;13.41;37.51;100699.20;103828;1287;59802;-76
2022/01/15 09:22:40;;;;;;;10.50;2.70;;;;;;;13.56;38.00;100698.89;103769;1287;73818;-73
2022/01/15 09:25:27;;;;;;;9.40;2.50;;;;;;;14.02;36.86;100711.73;103650;1287;68022;-73
2022/01/15 09:31:24;;;;;;;9.30;2.30;;;;;;;14.51;35.63;100725.75;104655;1278;59313;-73
2022/01/15 09:35:56;;;;;;;9.30;2.50;;;;;;;14.85;35.03;100718.86;104548;1279;59534;-72
2022/01/15 09:38:44;;;;;;;9.90;2.50;;;;;;;15.15;33.29;100725.52;104840;1279;72856;-76
2022/01/15 09:41:38;;;;;;;9.80;3.00;;;;;;;15.48;33.14;100724.47;104161;1279;68598;-73
2022/01/15 09:44:26;;;;;;;8.70;2.70;;;;;;;15.64;32.47;100724.15;104583;1279;73347;-72
2022/01/15 09:47:13;;;;;;;8.70;2.30;;;;;;;15.86;31.75;100711.70;104454;1280;59281;-75
2022/01/15 09:50:25;;;;;;;;;;;;;;;;;;;;;
2022/01/15 09:54:16;;;;;;;8.30;2.60;;;;;;;16.68;31.20;100695.59;104681;1280;72335;-76
2022/01/15 09:57:46;;;;;;;10.10;2.80;;;;;;;17.42;29.95;100702.67;105082;1279;65863;-74
2022/01/15 10:14:25;;;;;;;10.00;2.90;;;;;;;15.17;32.47;100717.05;104920;1274;73789;-76
2022/01/15 10:17:27;;;;;;;10.00;2.50;;;;;;;15.17;32.06;100714.13;105069;1273;67257;-76
2022/01/15 10:20:21;;;;;;;8.60;2.30;;;;;;;14.34;32.88;100721.11;105670;1272;72701;-75
2022/01/15 10:23:23;;;;;;;10.20;2.50;;;;;;;13.18;34.99;100718.98;105063;1273;59314;-76
2022/01/15 10:26:28;;;;;;;10.30;2.70;;;;;;;12.63;35.67;100720.17;105064;1273;59422;-75
2022/01/15 10:29:15;;;;;;;9.40;2.30;;;;;;;11.48;37.66;100726.60;104920;1274;72348;-74
2022/01/15 10:32:15;;;;;;;11.10;2.60;;;;;;;10.67;39.55;100716.67;105034;1273;68484;-74
2022/01/15 10:35:15;;;;;;;9.70;3.00;;;;;;;9.82;41.95;100717.07;105128;1273;71394;-74
2022/01/15 10:38:17;;;;;;;11.90;3.00;;;;;;;9.36;42.63;100719.78;105248;1273;59769;-73
2022/01/15 10:41:04;;;;;;;9.90;2.80;;;;;;;8.83;43.88;100724.99;104962;1276;60316;-77
2022/01/15 10:44:37;;;;;;;10.40;3.20;;;;;;;8.43;45.46;100741.58;105146;1273;71552;-75
2022/01/15 10:47:28;;;;;;;13.00;3.50;;;;;;;9.21;45.23;100750.29;104937;1273;66716;-75
2022/01/15 10:50:38;;;;;;;12.40;3.10;;;;;;;10.76;42.43;100747.98;105371;1272;71605;-77
2022/01/15 10:53:46;;;;;;;11.80;3.30;;;;;;;12.77;38.67;100741.33;105570;1274;59244;-76
2022/01/15 10:57:10;;;;;;;10.60;3.30;;;;;;;13.15;36.68;100729.73;105095;1273;59342;-77
2022/01/15 11:00:13;;;;;;;10.70;3.20;;;;;;;14.24;34.48;100716.90;104617;1275;72734;-77
2022/01/15 11:03:16;;;;;;;10.30;3.40;;;;;;;14.88;33.49;100712.70;105534;1274;67940;-77
2022/01/15 11:06:03;;;;;;;10.80;4.10;;;;;;;15.53;32.47;100712.98;104931;1273;72889;-77
2022/01/15 11:09:58;;;;;;;13.50;3.80;;;;;;;16.08;31.27;100712.21;105416;1272;59209;-77
2022/01/15 11:13:27;;;;;;;11.40;3.70;;;;;;;16.79;30.47;100723.78;105575;1273;59580;-78
2022/01/15 11:16:18;;;;;;;11.10;3.20;;;;;;;16.74;29.83;100737.18;104458;1280;72443;-79
2022/01/15 11:19:30;;;;;;;10.00;3.50;;;;;;;15.88;31.31;100744.98;104415;1280;66937;-78
2022/01/15 11:22:22;;;;;;;9.40;3.60;;;;;;;15.36;31.91;100739.26;104639;1280;71475;-79
2022/01/15 11:25:13;;;;;;;10.20;3.50;;;;;;;15.42;31.79;100729.10;104998;1279;59299;-77
2022/01/15 11:28:04;;;;;;;8.70;3.10;;;;;;;15.20;32.22;100729.27;104253;1280;61214;-77
2022/01/15 11:31:50;;;;;;;11.80;3.60;;;;;;;14.84;32.10;100723.89;104719;1280;72666;-77
2022/01/15 11:34:39;;;;;;;8.00;2.90;;;;;;;14.74;32.34;100729.05;103807;1286;68434;-77
2022/01/15 11:37:26;;;;;;;8.20;2.60;;;;;;;14.06;32.63;100738.75;103574;1285;73011;-77
2022/01/15 11:40:46;;;;;;;9.20;3.20;;;;;;;13.55;33.20;100739.78;103909;1285;59914;-78
2022/01/15 11:43:50;;;;;;;10.20;2.20;;;;;;;13.39;33.51;100744.23;103881;1285;60608;-79
2022/01/15 11:47:26;;;;;;;8.30;1.90;;;;;;;13.11;33.75;100751.08;104214;1285;72559;-76
2022/01/15 11:50:26;;;;;;;7.80;2.00;;;;;;;13.09;33.63;100753.52;103649;1285;66574;-76
2022/01/15 11:54:11;;;;;;;9.30;2.10;;;;;;;12.98;33.88;100750.46;104653;1281;71795;-75
2022/01/15 11:57:01;;;;;;;7.00;1.70;;;;;;;12.55;34.57;100746.41;104389;1281;59919;-75
2022/01/15 11:59:53;;;;;;;6.80;2.00;;;;;;;12.13;35.15;100744.32;104430;1281;60342;-77
2022/01/15 12:02:55;;;;;;;7.20;1.90;;;;;;;11.65;35.86;100741.92;104807;1281;72581;-74
2022/01/15 12:05:57;;;;;;;9.50;1.90;;;;;;;11.36;37.12;100739.16;104960;1280;67317;-76
2022/01/15 12:08:45;;;;;;;8.50;2.10;;;;;;;11.20;37.54;100751.45;105593;1279;72952;-75
2022/01/15 12:11:35;;;;;;;8.10;2.20;;;;;;;11.15;37.62;100753.77;104588;1275;59804;-73
2022/01/15 12:15:39;;;;;;;9.20;2.50;;;;;;;11.14;37.90;100758.23;105156;1273;59189;-75
2022/01/15 12:19:46;;;;;;;9.90;2.00;;;;;;;10.70;38.93;100764.08;105398;1273;73839;-77
2022/01/15 12:33:35;;;;;;;9.70;2.10;;;;;;;9.46;41.14;100756.91;105715;1273;59279;-76
2022/01/15 12:47:46;;;;;;;10.10;2.10;;;;;;;8.41;43.16;100753.58;105077;1281;66976;-74
2022/01/15 12:57:44;;;;;;;9.40;2.20;;;;;;;7.01;46.76;100764.35;104607;1281;59495;-70
2022/01/15 13:17:46;;;;;;;9.00;2.00;;;;;;;4.08;56.44;100780.88;103940;1281;74294;-75
2022/01/15 13:22:49;;;;;;;8.90;2.40;;;;;;;3.52;58.67;100794.77;104793;1281;59990;-74
2022/01/15 13:34:12;;;;;;;;;;;;;;;;;;;;;
2022/01/15 13:44:27;;;;;;;9.60;2.80;;;;;;;2.43;63.69;100799.38;102797;1300;75725;-70
2022/01/15 13:59:30;;;;;;;11.20;2.70;;;;;;;2.05;67.31;100792.48;101728;1314;72660;-71
2022/01/15 14:03:44;;;;;;;9.80;2.50;;;;;;;1.88;67.78;100796.50;102317;1300;67477;-76
2022/01/15 14:19:23;;;;;;;;;;;;;;;;;;;;;
2022/01/15 14:29:33;;;;;;;9.60;2.50;;;;;;;1.12;72.40;100808.09;102803;1297;72745;-68
2022/01/15 14:45:17;;;;;;;14.40;3.50;;;;;;;0.77;75.74;100804.98;102975;1300;72897;-77
2022/01/15 14:55:25;;;;;;;10.60;3.10;;;;;;;0.55;76.57;100801.50;102886;1302;71979;-69
2022/01/15 15:00:54;;;;;;;12.30;3.30;;;;;;;0.46;77.34;100795.96;102453;1303;60395;-75
2022/01/15 15:17:00;;;;;;;;;;;;;;;;;;;;;
2022/01/15 15:44:08;;;;;;;12.90;3.60;;;;;;;-0.14;80.77;100807.44;103672;1303;67978;-71
2022/01/15 15:58:27;;;;;;;10.90;3.60;;;;;;;-0.25;81.62;100803.84;102806;1303;59743;-74
2022/01/15 16:08:06;;;;;;;13.10;4.00;;;;;;;-0.29;83.20;100800.27;102904;1306;68658;-72
2022/01/15 16:13:06;;;;;;;13.20;3.80;;;;;;;-0.28;83.50;100800.24;102844;1302;73073;-71
2022/01/15 16:18:11;;;;;;;10.90;3.80;;;;;;;-0.25;83.02;100803.14;103393;1300;59256;-74
2022/01/15 16:22:49;;;;;;;13.60;3.60;;;;;;;-0.22;83.41;100810.56;103223;1301;61986;-73
2022/01/15 19:01:03;;;;;;;24.00;5.60;;;;;;;0.19;92.83;100764.66;102690;1302;59249;-74
2022/01/15 20:07:54;;;;;;;17.70;4.90;;;;;;;0.05;90.65;100652.27;104655;1284;72154;-75
2022/01/15 20:33:37;;;;;;;19.00;5.90;;;;;;;-0.12;89.96;100655.80;103196;1301;72300;-74
2022/01/15 20:45:15;;;;;;;16.70;5.90;;;;;;;-0.16;90.25;100660.23;101969;1312;601297;-73
2022/01/15 20:48:05;;;;;;;22.20;6.50;;;;;;;-0.21;90.24;100671.86;104362;1290;59379;-75
2022/01/15 20:51:06;;;;;;;21.50;7.10;;;;;;;-0.24;90.25;100684.33;104303;1277;1003693;-75
2022/01/15 20:54:01;;;;;;;22.70;7.40;;;;;;;-0.27;90.23;100685.64;104645;1276;68283;-73
2022/01/15 20:57:34;;;;;;;24.20;7.10;;;;;;;-0.29;90.38;100692.84;104865;1277;67070;-72
2022/01/15 21:01:01;;;;;;;20.30;6.20;;;;;;;-0.31;90.07;100690.95;104600;1276;71970;-75
2022/01/15 21:04:21;;;;;;;20.80;6.40;;;;;;;-0.35;90.03;100702.89;105128;1276;59410;-74
2022/01/15 21:07:19;;;;;;;18.20;5.50;;;;;;;-0.37;90.30;100710.25;105071;1276;60437;-74
2022/01/15 21:10:19;;;;;;;17.60;6.90;;;;;;;-0.39;90.21;100700.89;104544;1276;71165;-75
2022/01/15 21:13:29;;;;;;;17.20;6.20;;;;;;;-0.43;89.74;100702.38;104845;1275;68126;-74
2022/01/15 21:16:37;;;;;;;14.90;5.30;;;;;;;-0.48;89.72;100702.67;104887;1275;70793;-75
2022/01/15 21:20:03;;;;;;;18.40;7.10;;;;;;;-0.55;89.73;100704.20;103971;1274;1003354;-74
2022/01/15 21:23:22;;;;;;;18.40;6.30;;;;;;;-0.57;89.97;100701.98;104214;1274;1016171;-74
2022/01/15 21:26:18;;;;;;;22.90;6.30;;;;;;;-0.60;89.93;100690.02;104904;1274;71845;-74
2022/01/15 21:29:31;;;;;;;19.40;6.60;;;;;;;-0.57;92.11;100695.53;105036;1274;68573;-74
2022/01/15 21:33:05;;;;;;;17.90;5.80;;;;;;;-0.51;90.68;100691.23;104603;1274;73014;-74
2022/01/15 21:36:11;;;;;;;17.10;6.40;;;;;;;-0.56;90.21;100689.75;104948;1274;59765;-77
2022/01/15 21:39:29;;;;;;;17.00;5.70;;;;;;;-0.59;90.22;100692.79;104607;1274;59338;-75
2022/01/15 21:42:23;;;;;;;23.10;8.50;;;;;;;-0.63;90.18;100693.04;104250;1274;1003127;-77
2022/01/15 21:45:34;;;;;;;22.60;8.20;;;;;;;-0.68;90.30;100690.71;104860;1274;67404;-75
2022/01/15 21:52:10;;;;;;;23.60;8.20;;;;;;;-0.80;90.51;100690.44;105424;1274;59325;-75
2022/01/15 21:55:34;;;;;;;23.80;8.10;;;;;;;-0.86;90.20;100692.64;104892;1274;60669;-74
2022/01/15 21:59:39;;;;;;;22.20;8.50;;;;;;;-0.95;90.22;100688.66;104943;1275;72661;-74
2022/01/15 22:03:50;;;;;;;19.70;8.10;;;;;;;-0.97;90.10;100694.27;105282;1274;67001;-74
2022/01/15 22:07:40;;;;;;;25.30;9.70;;;;;;;-0.96;90.09;100687.12;103967;1282;73332;-74
2022/01/15 22:10:57;;;;;;;23.80;8.90;;;;;;;-0.98;89.99;100682.27;103922;1282;59768;-74
2022/01/15 22:14:16;;;;;;;28.20;9.90;;;;;;;-0.93;90.01;100695.41;103961;1282;59762;-73
2022/01/15 22:17:18;;;;;;;29.10;10.10;;;;;;;-0.88;90.04;100689.20;104372;1282;70700;-74
2022/01/15 22:20:35;;;;;;;22.30;8.60;;;;;;;-0.84;89.86;100686.70;104044;1282;68531;-75
2022/01/15 22:24:00;;;;;;;22.50;8.00;;;;;;;-0.84;89.53;100684.77;104799;1282;72280;-75
2022/01/15 22:27:05;;;;;;;23.50;8.60;;;;;;;-0.85;89.62;100684.95;104342;1282;59370;-74
2022/01/15 22:29:56;;;;;;;19.20;6.90;;;;;;;-0.86;89.59;100687.77;103905;1282;60584;-74
2022/01/15 22:32:56;;;;;;;20.50;8.20;;;;;;;-0.89;89.60;100684.52;104325;1282;70573;-76
2022/01/15 22:35:50;;;;;;;28.20;10.00;;;;;;;-0.98;89.64;100680.34;103076;1282;1003163;-73
2022/01/15 22:38:40;;;;;;;30.70;12.40;;;;;;;-1.05;89.63;100683.61;103162;1282;1003087;-73
2022/01/15 22:41:30;;;;;;;27.40;10.20;;;;;;;-1.10;89.65;100682.33;103819;1282;59693;-73
2022/01/15 22:44:19;;;;;;;25.40;10.00;;;;;;;-1.14;89.91;100685.38;104402;1274;59504;-73
2022/01/15 22:47:11;;;;;;;28.80;10.40;;;;;;;-1.17;90.01;100680.04;104533;1274;69741;-73
2022/01/15 22:50:07;;;;;;;27.80;10.20;;;;;;;-1.23;90.50;100673.86;104475;1276;67086;-72
2022/01/15 22:52:56;;;;;;;21.60;8.00;;;;;;;-1.25;90.20;100676.52;104521;1276;73514;-72
2022/01/15 22:55:47;;;;;;;24.60;10.20;;;;;;;-1.29;90.00;100669.98;104601;1274;59895;-73
2022/01/15 22:58:37;;;;;;;29.00;11.30;;;;;;;-1.34;90.04;100662.94;104611;1274;59445;-73
2022/01/15 23:01:28;;;;;;;23.80;9.20;;;;;;;-1.38;90.24;100667.71;104596;1274;71848;-72
2022/01/15 23:04:17;;;;;;;28.80;10.00;;;;;;;-1.46;89.89;100676.20;104591;1274;68130;-72
2022/01/15 23:07:10;;;;;;;21.80;8.70;;;;;;;-1.58;89.43;100675.04;104209;1276;71354;-74
2022/01/15 23:10:00;;;;;;;21.50;7.40;;;;;;;-1.67;88.93;100671.20;104541;1274;59794;-72
2022/01/15 23:12:58;;;;;;;22.70;8.60;;;;;;;-1.79;89.07;100674.19;104748;1274;59290;-73
2022/01/15 23:54:51;;;;;;;;;;;;;;;;;;;;;
